PWSweather.com
Personal Weather Stations
Station Observations
KTXROWLE6
Ravens Nest, Rowlett, TX 75089

Ravens NestRowlett, TX 75089

Lat: 32.93105, Lon: -96.57368

Elevation: 556

Station Type: Davis Vantage Pro2 6152

http://rowlett.ws

High Low Average
Temperature 66.1°F18.9°F 56.3°F13.5°F 61.6°F16.4°F
Dew Point 60.1°F15.6°F 54.5°F12.5°F 57.2°F14.0°F
Winds 8.0 mph NW12.9 mph NW Calm Calm 0.9 mph 1.4 mph
Wind Gusts 15.0 mph24.1 mph -- 4.3 mph6.9 mph
Humidity 95% 75% 86%
Pressure 30.24 in1024.00 in 30.08 in1018.60 in -
Precipitation 17.04 in432.80 in - -
Hour Temp Dew Point Humidity Winds Wind Gusts Pressure Precip Precip Rate Daily Precip Total
12:00 AM 65.0°F18.3°C 59.7°F15.4°C 83% Calm Calm 5.0 mph8.0 kmh 30.09 in1019.0 mb 0.00 in0.0 mm 0.00 in0.0 mm 0.00 in0.0 mm
12:05 AM 65.0°F18.3°C 60.0°F15.6°C 84% 2.0 mph WNW3.2 kmh WNW 3.0 mph4.8 kmh 30.09 in1019.0 mb 0.00 in0.0 mm 0.00 in0.0 mm 0.00 in0.0 mm
12:10 AM 65.0°F18.3°C 60.0°F15.6°C 84% 2.0 mph NNW3.2 kmh NNW 6.0 mph9.7 kmh 30.10 in1019.3 mb 0.00 in0.0 mm 0.00 in0.0 mm 0.00 in0.0 mm
12:15 AM 65.0°F18.3°C 60.0°F15.6°C 84% Calm Calm 8.0 mph12.9 kmh 30.10 in1019.3 mb 0.00 in0.0 mm 0.00 in0.0 mm 0.00 in0.0 mm
12:20 AM 65.0°F18.3°C 60.0°F15.6°C 84% 2.0 mph SSW3.2 kmh SSW 4.0 mph6.4 kmh 30.10 in1019.3 mb 0.00 in0.0 mm 0.00 in0.0 mm 0.00 in0.0 mm
12:25 AM 65.0°F18.3°C 60.0°F15.6°C 84% 2.0 mph WSW3.2 kmh WSW 3.0 mph4.8 kmh 30.10 in1019.3 mb 0.00 in0.0 mm 0.00 in0.0 mm 0.00 in0.0 mm
12:30 AM 64.9°F18.3°C 59.9°F15.5°C 84% 3.0 mph E4.8 kmh E 6.0 mph9.7 kmh 30.10 in1019.3 mb 0.00 in0.0 mm 0.00 in0.0 mm 0.00 in0.0 mm
12:35 AM 64.9°F18.3°C 59.6°F15.3°C 83% Calm Calm 5.0 mph8.0 kmh 30.10 in1019.3 mb 0.00 in0.0 mm 0.00 in0.0 mm 0.00 in0.0 mm
12:40 AM 64.8°F18.2°C 59.5°F15.3°C 83% 1.0 mph NE1.6 kmh NE 4.0 mph6.4 kmh 30.10 in1019.3 mb 0.00 in0.0 mm 0.00 in0.0 mm 0.00 in0.0 mm
12:45 AM 64.8°F18.2°C 59.8°F15.4°C 84% Calm Calm 4.0 mph6.4 kmh 30.10 in1019.3 mb 0.00 in0.0 mm 0.00 in0.0 mm 0.00 in0.0 mm
12:50 AM 64.7°F18.2°C 59.7°F15.4°C 84% 3.0 mph W4.8 kmh W 7.0 mph11.3 kmh 30.11 in1019.6 mb 0.00 in0.0 mm 0.00 in0.0 mm 0.00 in0.0 mm
12:55 AM 64.7°F18.2°C 59.4°F15.2°C 83% 3.0 mph E4.8 kmh E 3.0 mph4.8 kmh 30.10 in1019.3 mb 0.00 in0.0 mm 0.00 in0.0 mm 0.00 in0.0 mm
01:00 AM 64.6°F18.1°C 59.3°F15.2°C 83% 1.0 mph NNW1.6 kmh NNW 5.0 mph8.0 kmh 30.10 in1019.3 mb 0.00 in0.0 mm 0.00 in0.0 mm 0.00 in0.0 mm
01:05 AM 64.5°F18.1°C 59.5°F15.3°C 84% 2.0 mph NNW3.2 kmh NNW 9.0 mph14.5 kmh 30.09 in1019.0 mb 0.00 in0.0 mm 0.00 in0.0 mm 0.00 in0.0 mm
01:10 AM 64.3°F17.9°C 59.0°F15.0°C 83% 4.0 mph SSE6.4 kmh SSE 7.0 mph11.3 kmh 30.09 in1019.0 mb 0.00 in0.0 mm 0.00 in0.0 mm 0.00 in0.0 mm
01:15 AM 64.1°F17.8°C 58.4°F14.7°C 82% 1.0 mph E1.6 kmh E 5.0 mph8.0 kmh 30.08 in1018.6 mb 0.00 in0.0 mm 0.00 in0.0 mm 0.00 in0.0 mm
01:20 AM 63.9°F17.7°C 58.2°F14.6°C 82% Calm Calm 6.0 mph9.7 kmh 30.08 in1018.6 mb 0.00 in0.0 mm 0.00 in0.0 mm 0.00 in0.0 mm
01:25 AM 63.8°F17.7°C 58.1°F14.5°C 82% 2.0 mph NE3.2 kmh NE 10.0 mph16.1 kmh 30.08 in1018.6 mb 0.00 in0.0 mm 0.00 in0.0 mm 0.00 in0.0 mm
01:30 AM 63.7°F17.6°C 58.0°F14.4°C 82% Calm Calm 10.0 mph16.1 kmh 30.09 in1019.0 mb 0.00 in0.0 mm 0.00 in0.0 mm 0.00 in0.0 mm
01:35 AM 63.6°F17.6°C 58.3°F14.6°C 83% Calm Calm 4.0 mph6.4 kmh 30.08 in1018.6 mb 0.00 in0.0 mm 0.00 in0.0 mm 0.00 in0.0 mm
01:40 AM 63.5°F17.5°C 58.2°F14.6°C 83% 2.0 mph ENE3.2 kmh ENE 5.0 mph8.0 kmh 30.08 in1018.6 mb 0.00 in0.0 mm 0.00 in0.0 mm 0.00 in0.0 mm
01:45 AM 63.4°F17.4°C 58.1°F14.5°C 83% Calm Calm 5.0 mph8.0 kmh 30.08 in1018.6 mb 0.00 in0.0 mm 0.00 in0.0 mm 0.00 in0.0 mm
01:50 AM 63.4°F17.4°C 58.1°F14.5°C 83% Calm Calm 1.0 mph1.6 kmh 30.09 in1019.0 mb 0.00 in0.0 mm 0.00 in0.0 mm 0.00 in0.0 mm
01:55 AM 63.4°F17.4°C 58.1°F14.5°C 83% 3.0 mph E4.8 kmh E 5.0 mph8.0 kmh 30.09 in1019.0 mb 0.00 in0.0 mm 0.00 in0.0 mm 0.00 in0.0 mm
02:00 AM 63.3°F17.4°C 58.0°F14.4°C 83% Calm Calm 6.0 mph9.7 kmh 30.09 in1019.0 mb 0.00 in0.0 mm 0.00 in0.0 mm 0.00 in0.0 mm
02:05 AM 63.2°F17.3°C 57.9°F14.4°C 83% 1.0 mph NE1.6 kmh NE 4.0 mph6.4 kmh 30.10 in1019.3 mb 0.00 in0.0 mm 0.00 in0.0 mm 0.00 in0.0 mm
02:10 AM 63.2°F17.3°C 57.9°F14.4°C 83% Calm Calm 5.0 mph8.0 kmh 30.10 in1019.3 mb 0.00 in0.0 mm 0.00 in0.0 mm 0.00 in0.0 mm
02:15 AM 63.1°F17.3°C 57.8°F14.3°C 83% 3.0 mph SSW4.8 kmh SSW 5.0 mph8.0 kmh 30.11 in1019.6 mb 0.00 in0.0 mm 0.00 in0.0 mm 0.00 in0.0 mm
02:20 AM 63.0°F17.2°C 57.7°F14.3°C 83% 1.0 mph SW1.6 kmh SW 5.0 mph8.0 kmh 30.10 in1019.3 mb 0.00 in0.0 mm 0.00 in0.0 mm 0.00 in0.0 mm
02:25 AM 63.0°F17.2°C 57.7°F14.3°C 83% Calm Calm 5.0 mph8.0 kmh 30.10 in1019.3 mb 0.00 in0.0 mm 0.00 in0.0 mm 0.00 in0.0 mm
02:30 AM 63.0°F17.2°C 57.7°F14.3°C 83% 3.0 mph WSW4.8 kmh WSW 5.0 mph8.0 kmh 30.10 in1019.3 mb 0.00 in0.0 mm 0.00 in0.0 mm 0.00 in0.0 mm
02:35 AM 63.0°F17.2°C 57.7°F14.3°C 83% Calm Calm 4.0 mph6.4 kmh 30.10 in1019.3 mb 0.00 in0.0 mm 0.00 in0.0 mm 0.00 in0.0 mm
02:40 AM 62.9°F17.2°C 57.6°F14.2°C 83% 2.0 mph SE3.2 kmh SE 5.0 mph8.0 kmh 30.10 in1019.3 mb 0.00 in0.0 mm 0.00 in0.0 mm 0.00 in0.0 mm
02:45 AM 62.9°F17.2°C 57.6°F14.2°C 83% Calm Calm 3.0 mph4.8 kmh 30.09 in1019.0 mb 0.00 in0.0 mm 0.00 in0.0 mm 0.00 in0.0 mm
02:50 AM 62.9°F17.2°C 57.6°F14.2°C 83% 7.0 mph E11.3 kmh E 7.0 mph11.3 kmh 30.09 in1019.0 mb 0.00 in0.0 mm 0.00 in0.0 mm 0.00 in0.0 mm
02:55 AM 62.8°F17.1°C 57.5°F14.2°C 83% Calm Calm 9.0 mph14.5 kmh 30.09 in1019.0 mb 0.00 in0.0 mm 0.00 in0.0 mm 0.00 in0.0 mm
03:00 AM 62.8°F17.1°C 57.5°F14.2°C 83% 1.0 mph ENE1.6 kmh ENE 4.0 mph6.4 kmh 30.09 in1019.0 mb 0.00 in0.0 mm 0.00 in0.0 mm 0.00 in0.0 mm
03:05 AM 62.7°F17.1°C 57.4°F14.1°C 83% 3.0 mph E4.8 kmh E 5.0 mph8.0 kmh 30.10 in1019.3 mb 0.00 in0.0 mm 0.00 in0.0 mm 0.00 in0.0 mm
03:10 AM 62.6°F17.0°C 57.0°F13.9°C 82% 1.0 mph NW1.6 kmh NW 12.0 mph19.3 kmh 30.11 in1019.6 mb 0.00 in0.0 mm 0.00 in0.0 mm 0.00 in0.0 mm
03:15 AM 62.5°F16.9°C 56.9°F13.8°C 82% 3.0 mph WSW4.8 kmh WSW 8.0 mph12.9 kmh 30.10 in1019.3 mb 0.00 in0.0 mm 0.00 in0.0 mm 0.00 in0.0 mm
03:20 AM 62.3°F16.8°C 56.7°F13.7°C 82% 4.0 mph NW6.4 kmh NW 8.0 mph12.9 kmh 30.10 in1019.3 mb 0.00 in0.0 mm 0.00 in0.0 mm 0.00 in0.0 mm
03:25 AM 62.3°F16.8°C 56.7°F13.7°C 82% Calm Calm 5.0 mph8.0 kmh 30.10 in1019.3 mb 0.00 in0.0 mm 0.00 in0.0 mm 0.00 in0.0 mm
03:30 AM 62.2°F16.8°C 56.6°F13.7°C 82% 2.0 mph SW3.2 kmh SW 4.0 mph6.4 kmh 30.10 in1019.3 mb 0.00 in0.0 mm 0.00 in0.0 mm 0.00 in0.0 mm
03:35 AM 62.1°F16.7°C 56.5°F13.6°C 82% 1.0 mph E1.6 kmh E 7.0 mph11.3 kmh 30.09 in1019.0 mb 0.00 in0.0 mm 0.00 in0.0 mm 0.00 in0.0 mm
03:40 AM 62.0°F16.7°C 56.4°F13.6°C 82% Calm Calm 3.0 mph4.8 kmh 30.09 in1019.0 mb 0.00 in0.0 mm 0.00 in0.0 mm 0.00 in0.0 mm
03:45 AM 62.0°F16.7°C 56.4°F13.6°C 82% 1.0 mph S1.6 kmh S 5.0 mph8.0 kmh 30.10 in1019.3 mb 0.00 in0.0 mm 0.00 in0.0 mm 0.00 in0.0 mm
03:50 AM 62.0°F16.7°C 56.4°F13.6°C 82% Calm Calm 4.0 mph6.4 kmh 30.10 in1019.3 mb 0.00 in0.0 mm 0.00 in0.0 mm 0.00 in0.0 mm
03:55 AM 61.9°F16.6°C 56.3°F13.5°C 82% 3.0 mph SW4.8 kmh SW 4.0 mph6.4 kmh 30.10 in1019.3 mb 0.00 in0.0 mm 0.00 in0.0 mm 0.00 in0.0 mm
04:00 AM 61.8°F16.6°C 56.2°F13.4°C 82% 1.0 mph ENE1.6 kmh ENE 4.0 mph6.4 kmh 30.10 in1019.3 mb 0.00 in0.0 mm 0.00 in0.0 mm 0.00 in0.0 mm
04:05 AM 61.7°F16.5°C 56.1°F13.4°C 82% 1.0 mph WNW1.6 kmh WNW 7.0 mph11.3 kmh 30.11 in1019.6 mb 0.00 in0.0 mm 0.00 in0.0 mm 0.00 in0.0 mm
04:10 AM 61.5°F16.4°C 56.6°F13.7°C 84% Calm Calm 4.0 mph6.4 kmh 30.11 in1019.6 mb 0.04 in1.0 mm 0.48 in12.2 mm 0.04 in1.0 mm
04:15 AM 60.9°F16.1°C 56.6°F13.7°C 86% 4.0 mph NW6.4 kmh NW 10.0 mph16.1 kmh 30.13 in1020.3 mb 0.15 in3.8 mm 1.32 in33.5 mm 0.15 in3.8 mm
04:20 AM 60.3°F15.7°C 56.7°F13.7°C 88% 2.0 mph WNW3.2 kmh WNW 8.0 mph12.9 kmh 30.11 in1019.6 mb 0.21 in5.3 mm 0.72 in18.3 mm 0.21 in5.3 mm
04:25 AM 59.8°F15.4°C 56.2°F13.4°C 88% 2.0 mph E3.2 kmh E 5.0 mph8.0 kmh 30.10 in1019.3 mb 0.23 in5.8 mm 0.24 in6.1 mm 0.23 in5.8 mm
04:30 AM 59.5°F15.3°C 56.2°F13.4°C 89% 1.0 mph E1.6 kmh E 7.0 mph11.3 kmh 30.10 in1019.3 mb 0.24 in6.1 mm 0.12 in3.0 mm 0.24 in6.1 mm
04:35 AM 59.3°F15.2°C 56.3°F13.5°C 90% 5.0 mph SSE8.0 kmh SSE 6.0 mph9.7 kmh 30.10 in1019.3 mb 0.26 in6.6 mm 0.24 in6.1 mm 0.26 in6.6 mm
04:40 AM 58.7°F14.8°C 56.0°F13.3°C 91% 4.0 mph NW6.4 kmh NW 8.0 mph12.9 kmh 30.12 in1020.0 mb 0.37 in9.4 mm 1.32 in33.5 mm 0.37 in9.4 mm
04:45 AM 58.4°F14.7°C 56.0°F13.3°C 92% 3.0 mph WSW4.8 kmh WSW 8.0 mph12.9 kmh 30.12 in1020.0 mb 0.48 in12.2 mm 1.32 in33.5 mm 0.48 in12.2 mm
04:50 AM 58.2°F14.6°C 55.8°F13.2°C 92% 3.0 mph SSE4.8 kmh SSE 6.0 mph9.7 kmh 30.09 in1019.0 mb 0.60 in15.2 mm 1.44 in36.6 mm 0.61 in15.5 mm
04:55 AM 57.8°F14.3°C 55.7°F13.2°C 93% 3.0 mph S4.8 kmh S 5.0 mph8.0 kmh 30.12 in1020.0 mb 0.74 in18.8 mm 1.68 in42.7 mm 0.74 in18.8 mm
05:00 AM 57.7°F14.3°C 55.6°F13.1°C 93% Calm Calm 7.0 mph11.3 kmh 30.12 in1020.0 mb 0.86 in21.8 mm 0.13 in3.3 mm 0.86 in21.8 mm
05:05 AM 57.7°F14.3°C 55.6°F13.1°C 93% 2.0 mph N3.2 kmh N 3.0 mph4.8 kmh 30.12 in1020.0 mb 0.96 in24.4 mm 1.20 in30.5 mm 0.96 in24.4 mm
05:10 AM 57.8°F14.3°C 56.0°F13.3°C 94% 4.0 mph W6.4 kmh W 9.0 mph14.5 kmh 30.12 in1020.0 mb 0.98 in24.9 mm 0.24 in6.1 mm 1.02 in25.9 mm
05:15 AM 57.8°F14.3°C 56.0°F13.3°C 94% Calm Calm 8.0 mph12.9 kmh 30.12 in1020.0 mb 0.89 in22.6 mm 0.00 in0.0 mm 1.04 in26.4 mm
05:20 AM 57.9°F14.4°C 56.1°F13.4°C 94% Calm Calm 3.0 mph4.8 kmh 30.10 in1019.3 mb 0.85 in21.6 mm 0.00 in0.0 mm 1.06 in26.9 mm
05:25 AM 57.9°F14.4°C 56.1°F13.4°C 94% Calm Calm 9.0 mph14.5 kmh 30.11 in1019.6 mb 0.85 in21.6 mm 0.00 in0.0 mm 1.08 in27.4 mm
05:30 AM 57.8°F14.3°C 56.0°F13.3°C 94% 2.0 mph WNW3.2 kmh WNW 7.0 mph11.3 kmh 30.12 in1020.0 mb 0.87 in22.1 mm 0.24 in6.1 mm 1.11 in28.2 mm
05:35 AM 57.9°F14.4°C 56.4°F13.6°C 95% 2.0 mph W3.2 kmh W 4.0 mph6.4 kmh 30.13 in1020.3 mb 0.86 in21.8 mm 0.00 in0.0 mm 1.12 in28.4 mm
05:40 AM 57.8°F14.3°C 56.3°F13.5°C 95% 8.0 mph NW12.9 kmh NW 15.0 mph24.1 kmh 30.13 in1020.3 mb 0.76 in19.3 mm 0.00 in0.0 mm 1.13 in28.7 mm
05:45 AM 57.6°F14.2°C 55.8°F13.2°C 94% Calm Calm 10.0 mph16.1 kmh 30.12 in1020.0 mb 0.65 in16.5 mm 0.00 in0.0 mm 1.13 in28.7 mm
05:50 AM 57.5°F14.2°C 55.7°F13.2°C 94% 2.0 mph SSE3.2 kmh SSE 5.0 mph8.0 kmh 30.12 in1020.0 mb 0.53 in13.5 mm 0.00 in0.0 mm 1.13 in28.7 mm
05:55 AM 57.3°F14.1°C 55.5°F13.1°C 94% 1.0 mph W1.6 kmh W 7.0 mph11.3 kmh 30.12 in1020.0 mb 0.39 in9.9 mm 0.00 in0.0 mm 1.13 in28.7 mm
06:00 AM 57.2°F14.0°C 55.4°F13.0°C 94% 2.0 mph SSW3.2 kmh SSW 8.0 mph12.9 kmh 30.12 in1020.0 mb 0.27 in6.9 mm 0.00 in0.0 mm 1.13 in28.7 mm
06:05 AM 57.2°F14.0°C 55.4°F13.0°C 94% Calm Calm 5.0 mph8.0 kmh 30.12 in1020.0 mb 0.17 in4.3 mm 0.00 in0.0 mm 1.13 in28.7 mm
06:10 AM 57.2°F14.0°C 55.4°F13.0°C 94% Calm Calm 4.0 mph6.4 kmh 30.12 in1020.0 mb 0.11 in2.8 mm 0.00 in0.0 mm 1.13 in28.7 mm
06:15 AM 57.2°F14.0°C 55.4°F13.0°C 94% Calm Calm 5.0 mph8.0 kmh 30.12 in1020.0 mb 0.09 in2.3 mm 0.00 in0.0 mm 1.13 in28.7 mm
06:20 AM 57.2°F14.0°C 55.4°F13.0°C 94% 3.0 mph E4.8 kmh E 6.0 mph9.7 kmh 30.12 in1020.0 mb 0.07 in1.8 mm 0.00 in0.0 mm 1.13 in28.7 mm
06:25 AM 57.3°F14.1°C 55.5°F13.1°C 94% 1.0 mph S1.6 kmh S 4.0 mph6.4 kmh 30.12 in1020.0 mb 0.05 in1.3 mm 0.00 in0.0 mm 1.13 in28.7 mm
06:30 AM 57.3°F14.1°C 55.5°F13.1°C 94% Calm Calm 5.0 mph8.0 kmh 30.13 in1020.3 mb 0.02 in0.5 mm 0.00 in0.0 mm 1.13 in28.7 mm
06:35 AM 57.4°F14.1°C 55.6°F13.1°C 94% 7.0 mph NW11.3 kmh NW 7.0 mph11.3 kmh 30.14 in1020.7 mb 0.02 in0.5 mm 0.00 in0.0 mm 1.14 in29.0 mm
06:40 AM 57.3°F14.1°C 55.5°F13.1°C 94% 5.0 mph WNW8.0 kmh WNW 9.0 mph14.5 kmh 30.16 in1021.3 mb 0.01 in0.3 mm 0.00 in0.0 mm 1.14 in29.0 mm
06:45 AM 57.4°F14.1°C 55.6°F13.1°C 94% 6.0 mph W9.7 kmh W 10.0 mph16.1 kmh 30.19 in1022.4 mb 0.01 in0.3 mm 0.00 in0.0 mm 1.14 in29.0 mm
06:50 AM 57.2°F14.0°C 55.4°F13.0°C 94% 3.0 mph W4.8 kmh W 9.0 mph14.5 kmh 30.20 in1022.7 mb 0.01 in0.3 mm 0.00 in0.0 mm 1.14 in29.0 mm
06:55 AM 57.0°F13.9°C 54.9°F12.7°C 93% 6.0 mph WNW9.7 kmh WNW 9.0 mph14.5 kmh 30.19 in1022.4 mb 0.01 in0.3 mm 0.00 in0.0 mm 1.14 in29.0 mm
07:00 AM 56.9°F13.8°C 54.8°F12.7°C 93% 4.0 mph NW6.4 kmh NW 13.0 mph20.9 kmh 30.20 in1022.7 mb 0.03 in0.8 mm 0.02 in0.5 mm 1.16 in29.5 mm
07:05 AM 56.9°F13.8°C 54.8°F12.7°C 93% 2.0 mph W3.2 kmh W 7.0 mph11.3 kmh 30.21 in1023.0 mb 0.03 in0.8 mm 0.00 in0.0 mm 1.16 in29.5 mm
07:10 AM 56.9°F13.8°C 54.5°F12.5°C 92% Calm Calm 4.0 mph6.4 kmh 30.21 in1023.0 mb 0.03 in0.8 mm 0.00 in0.0 mm 1.16 in29.5 mm
07:15 AM 57.0°F13.9°C 54.9°F12.7°C 93% Calm Calm 2.0 mph3.2 kmh 30.20 in1022.7 mb 0.04 in1.0 mm 0.12 in3.0 mm 1.17 in29.7 mm
07:20 AM 57.0°F13.9°C 54.9°F12.7°C 93% 1.0 mph NW1.6 kmh NW 3.0 mph4.8 kmh 30.21 in1023.0 mb 0.04 in1.0 mm 0.00 in0.0 mm 1.17 in29.7 mm
07:25 AM 56.9°F13.8°C 54.8°F12.7°C 93% 2.0 mph NW3.2 kmh NW 4.0 mph6.4 kmh 30.22 in1023.4 mb 0.04 in1.0 mm 0.00 in0.0 mm 1.17 in29.7 mm
07:30 AM 56.9°F13.8°C 54.8°F12.7°C 93% Calm Calm 5.0 mph8.0 kmh 30.22 in1023.4 mb 0.04 in1.0 mm 0.00 in0.0 mm 1.17 in29.7 mm
07:35 AM 56.9°F13.8°C 54.8°F12.7°C 93% 1.0 mph W1.6 kmh W 5.0 mph8.0 kmh 30.21 in1023.0 mb 0.04 in1.0 mm 0.00 in0.0 mm 1.18 in30.0 mm
07:40 AM 56.8°F13.8°C 54.7°F12.6°C 93% 1.0 mph W1.6 kmh W 4.0 mph6.4 kmh 30.20 in1022.7 mb 0.04 in1.0 mm 0.00 in0.0 mm 1.18 in30.0 mm
07:45 AM 56.7°F13.7°C 54.6°F12.6°C 93% Calm Calm 3.0 mph4.8 kmh 30.19 in1022.4 mb 0.06 in1.5 mm 0.24 in6.1 mm 1.20 in30.5 mm
07:50 AM 56.7°F13.7°C 54.9°F12.7°C 94% 3.0 mph W4.8 kmh W 4.0 mph6.4 kmh 30.19 in1022.4 mb 0.08 in2.0 mm 0.24 in6.1 mm 1.22 in31.0 mm
07:55 AM 56.6°F13.7°C 54.8°F12.7°C 94% Calm Calm 3.0 mph4.8 kmh 30.20 in1022.7 mb 0.10 in2.5 mm 0.24 in6.1 mm 1.24 in31.5 mm
08:00 AM 56.6°F13.7°C 54.8°F12.7°C 94% Calm Calm 3.0 mph4.8 kmh 30.18 in1022.0 mb 0.09 in2.3 mm 0.00 in0.0 mm 1.25 in31.8 mm
08:05 AM 56.4°F13.6°C 54.6°F12.6°C 94% Calm Calm 3.0 mph4.8 kmh 30.18 in1022.0 mb 0.11 in2.8 mm 0.24 in6.1 mm 1.27 in32.3 mm
08:10 AM 56.4°F13.6°C 54.6°F12.6°C 94% Calm Calm 3.0 mph4.8 kmh 30.19 in1022.4 mb 0.12 in3.0 mm 0.12 in3.0 mm 1.28 in32.5 mm
08:15 AM 56.5°F13.6°C 55.0°F12.8°C 95% 1.0 mph E1.6 kmh E 1.0 mph1.6 kmh 30.20 in1022.7 mb 0.13 in3.3 mm 0.12 in3.0 mm 1.30 in33.0 mm
08:20 AM 56.5°F13.6°C 55.0°F12.8°C 95% Calm Calm 2.0 mph3.2 kmh 30.19 in1022.4 mb 0.15 in3.8 mm 0.24 in6.1 mm 1.32 in33.5 mm
08:25 AM 56.6°F13.7°C 55.1°F12.8°C 95% Calm Calm 2.0 mph3.2 kmh 30.19 in1022.4 mb 0.16 in4.1 mm 0.12 in3.0 mm 1.33 in33.8 mm
08:30 AM 56.7°F13.7°C 55.2°F12.9°C 95% Calm Calm 4.0 mph6.4 kmh 30.19 in1022.4 mb 0.17 in4.3 mm 0.12 in3.0 mm 1.34 in34.0 mm
08:35 AM 56.7°F13.7°C 55.2°F12.9°C 95% 1.0 mph E1.6 kmh E 3.0 mph4.8 kmh 30.19 in1022.4 mb 0.17 in4.3 mm 0.00 in0.0 mm 1.35 in34.3 mm
08:40 AM 56.6°F13.7°C 55.1°F12.8°C 95% Calm Calm 2.0 mph3.2 kmh 30.19 in1022.4 mb 0.18 in4.6 mm 0.12 in3.0 mm 1.36 in34.5 mm
08:45 AM 56.6°F13.7°C 55.1°F12.8°C 95% 2.0 mph ENE3.2 kmh ENE 2.0 mph3.2 kmh 30.19 in1022.4 mb 0.17 in4.3 mm 0.00 in0.0 mm 1.37 in34.8 mm
08:50 AM 56.6°F13.7°C 55.1°F12.8°C 95% Calm Calm 5.0 mph8.0 kmh 30.19 in1022.4 mb 0.16 in4.1 mm 0.00 in0.0 mm 1.38 in35.1 mm
08:55 AM 56.6°F13.7°C 55.1°F12.8°C 95% Calm Calm 3.0 mph4.8 kmh 30.18 in1022.0 mb 0.14 in3.6 mm 0.00 in0.0 mm 1.38 in35.1 mm
09:00 AM 56.6°F13.7°C 55.1°F12.8°C 95% Calm Calm 5.0 mph8.0 kmh 30.18 in1022.0 mb 0.13 in3.3 mm 0.00 in0.0 mm 1.38 in35.1 mm
09:05 AM 56.6°F13.7°C 55.1°F12.8°C 95% 1.0 mph S1.6 kmh S 5.0 mph8.0 kmh 30.18 in1022.0 mb 0.12 in3.0 mm 0.00 in0.0 mm 1.39 in35.3 mm
09:10 AM 56.6°F13.7°C 55.1°F12.8°C 95% Calm Calm 4.0 mph6.4 kmh 30.18 in1022.0 mb 0.11 in2.8 mm 0.00 in0.0 mm 1.39 in35.3 mm
09:15 AM 56.6°F13.7°C 55.1°F12.8°C 95% Calm Calm 5.0 mph8.0 kmh 30.19 in1022.4 mb 0.09 in2.3 mm 0.00 in0.0 mm 1.39 in35.3 mm
09:20 AM 56.5°F13.6°C 55.0°F12.8°C 95% 1.0 mph ENE1.6 kmh ENE 4.0 mph6.4 kmh 30.20 in1022.7 mb 0.07 in1.8 mm 0.00 in0.0 mm 1.39 in35.3 mm
09:25 AM 56.4°F13.6°C 54.9°F12.7°C 95% Calm Calm 4.0 mph6.4 kmh 30.20 in1022.7 mb 0.06 in1.5 mm 0.00 in0.0 mm 1.39 in35.3 mm
09:30 AM 56.4°F13.6°C 54.9°F12.7°C 95% 2.0 mph E3.2 kmh E 3.0 mph4.8 kmh 30.19 in1022.4 mb 0.05 in1.3 mm 0.00 in0.0 mm 1.39 in35.3 mm
09:35 AM 56.3°F13.5°C 54.5°F12.5°C 94% 1.0 mph NE1.6 kmh NE 6.0 mph9.7 kmh 30.19 in1022.4 mb 0.05 in1.3 mm 0.00 in0.0 mm 1.40 in35.6 mm
09:40 AM 56.3°F13.5°C 54.5°F12.5°C 94% Calm Calm 3.0 mph4.8 kmh 30.19 in1022.4 mb 0.04 in1.0 mm 0.00 in0.0 mm 1.40 in35.6 mm
09:45 AM 56.4°F13.6°C 54.6°F12.6°C 94% Calm Calm 4.0 mph6.4 kmh 30.20 in1022.7 mb 0.04 in1.0 mm 0.00 in0.0 mm 1.41 in35.8 mm
09:50 AM 56.5°F13.6°C 54.7°F12.6°C 94% Calm Calm 3.0 mph4.8 kmh 30.20 in1022.7 mb 0.03 in0.8 mm 0.00 in0.0 mm 1.41 in35.8 mm
09:55 AM 56.5°F13.6°C 54.7°F12.6°C 94% Calm Calm 7.0 mph11.3 kmh 30.21 in1023.0 mb 0.03 in0.8 mm 0.00 in0.0 mm 1.41 in35.8 mm
10:00 AM 56.4°F13.6°C 54.6°F12.6°C 94% Calm Calm 4.0 mph6.4 kmh 30.21 in1023.0 mb 0.04 in1.0 mm 0.01 in0.3 mm 1.42 in36.1 mm
10:05 AM 56.4°F13.6°C 54.6°F12.6°C 94% Calm Calm 4.0 mph6.4 kmh 30.22 in1023.4 mb 0.03 in0.8 mm 0.00 in0.0 mm 1.42 in36.1 mm
10:10 AM 56.6°F13.7°C 54.8°F12.7°C 94% Calm Calm 2.0 mph3.2 kmh 30.22 in1023.4 mb 0.03 in0.8 mm 0.00 in0.0 mm 1.42 in36.1 mm
10:15 AM 56.6°F13.7°C 54.8°F12.7°C 94% Calm Calm 3.0 mph4.8 kmh 30.22 in1023.4 mb 0.03 in0.8 mm 0.00 in0.0 mm 1.42 in36.1 mm
10:20 AM 56.7°F13.7°C 54.9°F12.7°C 94% Calm Calm 2.0 mph3.2 kmh 30.22 in1023.4 mb 0.03 in0.8 mm 0.00 in0.0 mm 1.42 in36.1 mm
10:25 AM 56.8°F13.8°C 55.0°F12.8°C 94% Calm Calm 2.0 mph3.2 kmh 30.23 in1023.7 mb 0.03 in0.8 mm 0.00 in0.0 mm 1.42 in36.1 mm
10:30 AM 56.9°F13.8°C 54.8°F12.7°C 93% Calm Calm 5.0 mph8.0 kmh 30.23 in1023.7 mb 0.03 in0.8 mm 0.00 in0.0 mm 1.42 in36.1 mm
10:35 AM 56.9°F13.8°C 54.8°F12.7°C 93% Calm Calm 4.0 mph6.4 kmh 30.23 in1023.7 mb 0.02 in0.5 mm 0.00 in0.0 mm 1.42 in36.1 mm
10:40 AM 56.9°F13.8°C 54.5°F12.5°C 92% 1.0 mph NE1.6 kmh NE 4.0 mph6.4 kmh 30.24 in1024.0 mb 0.02 in0.5 mm 0.00 in0.0 mm 1.42 in36.1 mm
10:45 AM 56.9°F13.8°C 54.5°F12.5°C 92% Calm Calm 5.0 mph8.0 kmh 30.24 in1024.0 mb 0.01 in0.3 mm 0.00 in0.0 mm 1.42 in36.1 mm
10:50 AM 57.0°F13.9°C 54.6°F12.6°C 92% Calm Calm 3.0 mph4.8 kmh 30.24 in1024.0 mb 0.01 in0.3 mm 0.00 in0.0 mm 1.42 in36.1 mm
10:55 AM 57.1°F13.9°C 54.7°F12.6°C 92% 1.0 mph ENE1.6 kmh ENE 3.0 mph4.8 kmh 30.23 in1023.7 mb 0.01 in0.3 mm 0.00 in0.0 mm 1.42 in36.1 mm
11:00 AM 57.2°F14.0°C 54.8°F12.7°C 92% Calm Calm 2.0 mph3.2 kmh 30.23 in1023.7 mb 0.00 in0.0 mm 0.00 in0.0 mm 1.42 in36.1 mm
11:05 AM 57.3°F14.1°C 54.9°F12.7°C 92% 1.0 mph ENE1.6 kmh ENE 4.0 mph6.4 kmh 30.23 in1023.7 mb 0.00 in0.0 mm 0.00 in0.0 mm 1.42 in36.1 mm
11:10 AM 57.5°F14.2°C 55.1°F12.8°C 92% Calm Calm 2.0 mph3.2 kmh 30.23 in1023.7 mb 0.00 in0.0 mm 0.00 in0.0 mm 1.42 in36.1 mm
11:15 AM 57.5°F14.2°C 55.1°F12.8°C 92% 1.0 mph N1.6 kmh N 3.0 mph4.8 kmh 30.23 in1023.7 mb 0.00 in0.0 mm 0.00 in0.0 mm 1.42 in36.1 mm
11:20 AM 57.5°F14.2°C 54.8°F12.7°C 91% Calm Calm 3.0 mph4.8 kmh 30.23 in1023.7 mb 0.00 in0.0 mm 0.00 in0.0 mm 1.42 in36.1 mm
11:25 AM 57.5°F14.2°C 54.8°F12.7°C 91% Calm Calm 3.0 mph4.8 kmh 30.24 in1024.0 mb 0.00 in0.0 mm 0.00 in0.0 mm 1.42 in36.1 mm
11:30 AM 57.6°F14.2°C 54.9°F12.7°C 91% 1.0 mph N1.6 kmh N 2.0 mph3.2 kmh 30.24 in1024.0 mb 0.00 in0.0 mm 0.00 in0.0 mm 1.42 in36.1 mm
11:35 AM 57.7°F14.3°C 55.0°F12.8°C 91% Calm Calm 4.0 mph6.4 kmh 30.23 in1023.7 mb 0.00 in0.0 mm 0.00 in0.0 mm 1.42 in36.1 mm
11:40 AM 57.8°F14.3°C 54.8°F12.7°C 90% Calm Calm 2.0 mph3.2 kmh 30.23 in1023.7 mb 0.00 in0.0 mm 0.00 in0.0 mm 1.42 in36.1 mm
11:45 AM 57.9°F14.4°C 54.6°F12.6°C 89% Calm Calm 5.0 mph8.0 kmh 30.23 in1023.7 mb 0.00 in0.0 mm 0.00 in0.0 mm 1.42 in36.1 mm
11:50 AM 58.2°F14.6°C 54.9°F12.7°C 89% 1.0 mph NE1.6 kmh NE 2.0 mph3.2 kmh 30.23 in1023.7 mb 0.00 in0.0 mm 0.00 in0.0 mm 1.42 in36.1 mm
11:55 AM 58.5°F14.7°C 54.9°F12.7°C 88% 1.0 mph ESE1.6 kmh ESE 5.0 mph8.0 kmh 30.22 in1023.4 mb 0.00 in0.0 mm 0.00 in0.0 mm 1.42 in36.1 mm
12:00 PM 58.6°F14.8°C 55.0°F12.8°C 88% 3.0 mph ENE4.8 kmh ENE 5.0 mph8.0 kmh 30.22 in1023.4 mb 0.00 in0.0 mm 0.00 in0.0 mm 1.42 in36.1 mm
12:05 PM 58.9°F14.9°C 55.3°F12.9°C 88% Calm Calm 4.0 mph6.4 kmh 30.22 in1023.4 mb 0.00 in0.0 mm 0.00 in0.0 mm 1.42 in36.1 mm
12:10 PM 59.1°F15.1°C 55.2°F12.9°C 87% 1.0 mph W1.6 kmh W 4.0 mph6.4 kmh 30.22 in1023.4 mb 0.00 in0.0 mm 0.00 in0.0 mm 1.42 in36.1 mm
12:15 PM 59.3°F15.2°C 55.4°F13.0°C 87% Calm Calm 4.0 mph6.4 kmh 30.22 in1023.4 mb 0.00 in0.0 mm 0.00 in0.0 mm 1.42 in36.1 mm
12:20 PM 59.3°F15.2°C 55.1°F12.8°C 86% Calm Calm 4.0 mph6.4 kmh 30.22 in1023.4 mb 0.00 in0.0 mm 0.00 in0.0 mm 1.42 in36.1 mm
12:25 PM 59.4°F15.2°C 55.2°F12.9°C 86% Calm Calm 4.0 mph6.4 kmh 30.22 in1023.4 mb 0.00 in0.0 mm 0.00 in0.0 mm 1.42 in36.1 mm
12:30 PM 59.4°F15.2°C 54.8°F12.7°C 85% 3.0 mph SW4.8 kmh SW 5.0 mph8.0 kmh 30.21 in1023.0 mb 0.00 in0.0 mm 0.00 in0.0 mm 1.42 in36.1 mm
12:35 PM 59.6°F15.3°C 55.0°F12.8°C 85% Calm Calm 7.0 mph11.3 kmh 30.21 in1023.0 mb 0.00 in0.0 mm 0.00 in0.0 mm 1.42 in36.1 mm
12:40 PM 59.7°F15.4°C 54.8°F12.7°C 84% 2.0 mph WSW3.2 kmh WSW 8.0 mph12.9 kmh 30.21 in1023.0 mb 0.00 in0.0 mm 0.00 in0.0 mm 1.42 in36.1 mm
12:45 PM 59.9°F15.5°C 55.0°F12.8°C 84% 2.0 mph ENE3.2 kmh ENE 6.0 mph9.7 kmh 30.21 in1023.0 mb 0.00 in0.0 mm 0.00 in0.0 mm 1.42 in36.1 mm
12:50 PM 60.1°F15.6°C 55.5°F13.1°C 85% 1.0 mph SE1.6 kmh SE 5.0 mph8.0 kmh 30.22 in1023.4 mb 0.00 in0.0 mm 0.00 in0.0 mm 1.42 in36.1 mm
12:55 PM 60.4°F15.8°C 55.8°F13.2°C 85% 4.0 mph ESE6.4 kmh ESE 5.0 mph8.0 kmh 30.22 in1023.4 mb 0.00 in0.0 mm 0.00 in0.0 mm 1.42 in36.1 mm
01:00 PM 60.2°F15.7°C 55.3°F12.9°C 84% 2.0 mph NE3.2 kmh NE 6.0 mph9.7 kmh 30.22 in1023.4 mb 0.00 in0.0 mm 0.00 in0.0 mm 1.42 in36.1 mm
01:05 PM 60.3°F15.7°C 55.7°F13.2°C 85% Calm Calm 6.0 mph9.7 kmh 30.22 in1023.4 mb 0.00 in0.0 mm 0.00 in0.0 mm 1.42 in36.1 mm
01:10 PM 60.4°F15.8°C 55.2°F12.9°C 83% 3.0 mph SW4.8 kmh SW 6.0 mph9.7 kmh 30.21 in1023.0 mb 0.00 in0.0 mm 0.00 in0.0 mm 1.42 in36.1 mm
01:15 PM 60.5°F15.8°C 55.3°F12.9°C 83% 3.0 mph NW4.8 kmh NW 6.0 mph9.7 kmh 30.21 in1023.0 mb 0.00 in0.0 mm 0.00 in0.0 mm 1.42 in36.1 mm
01:20 PM 60.6°F15.9°C 55.7°F13.2°C 84% 1.0 mph WNW1.6 kmh WNW 5.0 mph8.0 kmh 30.21 in1023.0 mb 0.00 in0.0 mm 0.00 in0.0 mm 1.42 in36.1 mm
01:25 PM 60.6°F15.9°C 55.7°F13.2°C 84% Calm Calm 4.0 mph6.4 kmh 30.21 in1023.0 mb 0.00 in0.0 mm 0.00 in0.0 mm 1.42 in36.1 mm
01:30 PM 60.6°F15.9°C 55.4°F13.0°C 83% 1.0 mph NE1.6 kmh NE 3.0 mph4.8 kmh 30.21 in1023.0 mb 0.00 in0.0 mm 0.00 in0.0 mm 1.42 in36.1 mm
01:35 PM 60.6°F15.9°C 55.4°F13.0°C 83% 1.0 mph ENE1.6 kmh ENE 4.0 mph6.4 kmh 30.21 in1023.0 mb 0.00 in0.0 mm 0.00 in0.0 mm 1.42 in36.1 mm
01:40 PM 60.7°F15.9°C 55.5°F13.1°C 83% Calm Calm 6.0 mph9.7 kmh 30.21 in1023.0 mb 0.00 in0.0 mm 0.00 in0.0 mm 1.42 in36.1 mm
01:45 PM 61.0°F16.1°C 56.1°F13.4°C 84% Calm Calm 5.0 mph8.0 kmh 30.20 in1022.7 mb 0.00 in0.0 mm 0.00 in0.0 mm 1.42 in36.1 mm
01:50 PM 61.1°F16.2°C 55.8°F13.2°C 83% Calm Calm 3.0 mph4.8 kmh 30.20 in1022.7 mb 0.00 in0.0 mm 0.00 in0.0 mm 1.42 in36.1 mm
01:55 PM 61.3°F16.3°C 56.4°F13.6°C 84% Calm Calm 2.0 mph3.2 kmh 30.20 in1022.7 mb 0.00 in0.0 mm 0.00 in0.0 mm 1.42 in36.1 mm
02:00 PM 61.6°F16.4°C 56.3°F13.5°C 83% Calm Calm 5.0 mph8.0 kmh 30.21 in1023.0 mb 0.00 in0.0 mm 0.00 in0.0 mm 1.42 in36.1 mm
02:05 PM 61.7°F16.5°C 56.1°F13.4°C 82% Calm Calm 6.0 mph9.7 kmh 30.21 in1023.0 mb 0.00 in0.0 mm 0.00 in0.0 mm 1.42 in36.1 mm
02:10 PM 61.8°F16.6°C 56.2°F13.4°C 82% Calm Calm 6.0 mph9.7 kmh 30.20 in1022.7 mb 0.00 in0.0 mm 0.00 in0.0 mm 1.42 in36.1 mm
02:15 PM 62.2°F16.8°C 56.2°F13.4°C 81% 2.0 mph E3.2 kmh E 4.0 mph6.4 kmh 30.20 in1022.7 mb 0.00 in0.0 mm 0.00 in0.0 mm 1.42 in36.1 mm
02:20 PM 62.5°F16.9°C 56.5°F13.6°C 81% Calm Calm 3.0 mph4.8 kmh 30.21 in1023.0 mb 0.00 in0.0 mm 0.00 in0.0 mm 1.42 in36.1 mm
02:25 PM 62.6°F17.0°C 56.3°F13.5°C 80% Calm Calm 3.0 mph4.8 kmh 30.20 in1022.7 mb 0.00 in0.0 mm 0.00 in0.0 mm 1.42 in36.1 mm
02:30 PM 62.7°F17.1°C 56.4°F13.6°C 80% Calm Calm 3.0 mph4.8 kmh 30.20 in1022.7 mb 0.00 in0.0 mm 0.00 in0.0 mm 1.42 in36.1 mm
02:35 PM 62.8°F17.1°C 56.5°F13.6°C 80% 1.0 mph NE1.6 kmh NE 5.0 mph8.0 kmh 30.20 in1022.7 mb 0.00 in0.0 mm 0.00 in0.0 mm 1.42 in36.1 mm
02:40 PM 63.1°F17.3°C 57.1°F13.9°C 81% Calm Calm 2.0 mph3.2 kmh 30.20 in1022.7 mb 0.00 in0.0 mm 0.00 in0.0 mm 1.42 in36.1 mm
02:45 PM 63.3°F17.4°C 56.6°F13.7°C 79% 1.0 mph E1.6 kmh E 8.0 mph12.9 kmh 30.20 in1022.7 mb 0.00 in0.0 mm 0.00 in0.0 mm 1.42 in36.1 mm
02:50 PM 63.4°F17.4°C 56.7°F13.7°C 79% Calm Calm 6.0 mph9.7 kmh 30.20 in1022.7 mb 0.00 in0.0 mm 0.00 in0.0 mm 1.42 in36.1 mm
02:55 PM 63.4°F17.4°C 56.7°F13.7°C 79% 2.0 mph ENE3.2 kmh ENE 2.0 mph3.2 kmh 30.19 in1022.4 mb 0.00 in0.0 mm 0.00 in0.0 mm 1.42 in36.1 mm
03:00 PM 63.5°F17.5°C 56.8°F13.8°C 79% Calm Calm 7.0 mph11.3 kmh 30.19 in1022.4 mb 0.00 in0.0 mm 0.00 in0.0 mm 1.42 in36.1 mm
03:05 PM 63.5°F17.5°C 56.8°F13.8°C 79% Calm Calm 3.0 mph4.8 kmh 30.19 in1022.4 mb 0.00 in0.0 mm 0.00 in0.0 mm 1.42 in36.1 mm
03:10 PM 63.7°F17.6°C 57.0°F13.9°C 79% 3.0 mph E4.8 kmh E 6.0 mph9.7 kmh 30.19 in1022.4 mb 0.00 in0.0 mm 0.00 in0.0 mm 1.42 in36.1 mm
03:15 PM 64.0°F17.8°C 56.9°F13.8°C 78% Calm Calm 10.0 mph16.1 kmh 30.18 in1022.0 mb 0.00 in0.0 mm 0.00 in0.0 mm 1.42 in36.1 mm
03:20 PM 64.3°F17.9°C 57.2°F14.0°C 78% 3.0 mph E4.8 kmh E 5.0 mph8.0 kmh 30.18 in1022.0 mb 0.00 in0.0 mm 0.00 in0.0 mm 1.42 in36.1 mm
03:25 PM 64.5°F18.1°C 57.1°F13.9°C 77% 2.0 mph ENE3.2 kmh ENE 7.0 mph11.3 kmh 30.18 in1022.0 mb 0.00 in0.0 mm 0.00 in0.0 mm 1.42 in36.1 mm
03:30 PM 64.7°F18.2°C 57.3°F14.1°C 77% 1.0 mph NE1.6 kmh NE 6.0 mph9.7 kmh 30.18 in1022.0 mb 0.00 in0.0 mm 0.00 in0.0 mm 1.42 in36.1 mm
03:35 PM 64.9°F18.3°C 57.5°F14.2°C 77% Calm Calm 3.0 mph4.8 kmh 30.18 in1022.0 mb 0.00 in0.0 mm 0.00 in0.0 mm 1.42 in36.1 mm
03:40 PM 65.2°F18.4°C 57.8°F14.3°C 77% Calm Calm 3.0 mph4.8 kmh 30.18 in1022.0 mb 0.00 in0.0 mm 0.00 in0.0 mm 1.42 in36.1 mm
03:45 PM 65.5°F18.6°C 58.0°F14.4°C 77% Calm Calm 2.0 mph3.2 kmh 30.18 in1022.0 mb 0.00 in0.0 mm 0.00 in0.0 mm 1.42 in36.1 mm
03:50 PM 65.7°F18.7°C 57.9°F14.4°C 76% Calm Calm 3.0 mph4.8 kmh 30.18 in1022.0 mb 0.00 in0.0 mm 0.00 in0.0 mm 1.42 in36.1 mm
03:55 PM 65.6°F18.7°C 57.4°F14.1°C 75% 2.0 mph ENE3.2 kmh ENE 3.0 mph4.8 kmh 30.17 in1021.7 mb 0.00 in0.0 mm 0.00 in0.0 mm 1.42 in36.1 mm
04:00 PM 65.5°F18.6°C 58.0°F14.4°C 77% Calm Calm 2.0 mph3.2 kmh 30.17 in1021.7 mb 0.00 in0.0 mm 0.00 in0.0 mm 1.42 in36.1 mm
04:05 PM 65.7°F18.7°C 58.2°F14.6°C 77% Calm Calm 1.0 mph1.6 kmh 30.17 in1021.7 mb 0.00 in0.0 mm 0.00 in0.0 mm 1.42 in36.1 mm
04:10 PM 65.9°F18.8°C 58.4°F14.7°C 77% Calm Calm 3.0 mph4.8 kmh 30.17 in1021.7 mb 0.00 in0.0 mm 0.00 in0.0 mm 1.42 in36.1 mm
04:15 PM 65.9°F18.8°C 58.1°F14.5°C 76% 2.0 mph ENE3.2 kmh ENE 2.0 mph3.2 kmh 30.17 in1021.7 mb 0.00 in0.0 mm 0.00 in0.0 mm 1.42 in36.1 mm
04:20 PM 65.9°F18.8°C 58.1°F14.5°C 76% Calm Calm 3.0 mph4.8 kmh 30.17 in1021.7 mb 0.00 in0.0 mm 0.00 in0.0 mm 1.42 in36.1 mm
04:25 PM 65.9°F18.8°C 58.4°F14.7°C 77% Calm Calm 1.0 mph1.6 kmh 30.18 in1022.0 mb 0.00 in0.0 mm 0.00 in0.0 mm 1.42 in36.1 mm
04:30 PM 65.7°F18.7°C 57.9°F14.4°C 76% Calm Calm 4.0 mph6.4 kmh 30.18 in1022.0 mb 0.00 in0.0 mm 0.00 in0.0 mm 1.42 in36.1 mm
04:35 PM 65.4°F18.6°C 57.6°F14.2°C 76% Calm Calm 2.0 mph3.2 kmh 30.18 in1022.0 mb 0.00 in0.0 mm 0.00 in0.0 mm 1.42 in36.1 mm
04:40 PM 65.4°F18.6°C 57.9°F14.4°C 77% Calm Calm 2.0 mph3.2 kmh 30.17 in1021.7 mb 0.00 in0.0 mm 0.00 in0.0 mm 1.42 in36.1 mm
04:45 PM 65.5°F18.6°C 58.0°F14.4°C 77% Calm Calm 2.0 mph3.2 kmh 30.17 in1021.7 mb 0.00 in0.0 mm 0.00 in0.0 mm 1.42 in36.1 mm
04:50 PM 65.6°F18.7°C 58.1°F14.5°C 77% Calm Calm 1.0 mph1.6 kmh 30.17 in1021.7 mb 0.00 in0.0 mm 0.00 in0.0 mm 1.42 in36.1 mm
04:55 PM 65.6°F18.7°C 58.1°F14.5°C 77% Calm Calm 2.0 mph3.2 kmh 30.17 in1021.7 mb 0.00 in0.0 mm 0.00 in0.0 mm 1.42 in36.1 mm
05:00 PM 65.7°F18.7°C 58.6°F14.8°C 78% Calm Calm 1.0 mph1.6 kmh 30.17 in1021.7 mb 0.00 in0.0 mm 0.00 in0.0 mm 1.42 in36.1 mm
05:05 PM 65.8°F18.8°C 58.3°F14.6°C 77% Calm Calm 3.0 mph4.8 kmh 30.17 in1021.7 mb 0.00 in0.0 mm 0.00 in0.0 mm 1.42 in36.1 mm
05:10 PM 65.7°F18.7°C 58.6°F14.8°C 78% Calm Calm 4.0 mph6.4 kmh 30.17 in1021.7 mb 0.00 in0.0 mm 0.00 in0.0 mm 1.42 in36.1 mm
05:15 PM 65.5°F18.6°C 58.0°F14.4°C 77% Calm Calm 4.0 mph6.4 kmh 30.17 in1021.7 mb 0.00 in0.0 mm 0.00 in0.0 mm 1.42 in36.1 mm
05:20 PM 65.5°F18.6°C 58.4°F14.7°C 78% Calm Calm 2.0 mph3.2 kmh 30.16 in1021.3 mb 0.00 in0.0 mm 0.00 in0.0 mm 1.42 in36.1 mm
05:25 PM 65.3°F18.5°C 57.8°F14.3°C 77% Calm Calm 5.0 mph8.0 kmh 30.16 in1021.3 mb 0.00 in0.0 mm 0.00 in0.0 mm 1.42 in36.1 mm
05:30 PM 65.2°F18.4°C 58.1°F14.5°C 78% Calm Calm 2.0 mph3.2 kmh 30.16 in1021.3 mb 0.00 in0.0 mm 0.00 in0.0 mm 1.42 in36.1 mm
05:35 PM 65.2°F18.4°C 58.1°F14.5°C 78% Calm Calm 1.0 mph1.6 kmh 30.16 in1021.3 mb 0.00 in0.0 mm 0.00 in0.0 mm 1.42 in36.1 mm
05:40 PM 65.3°F18.5°C 58.6°F14.8°C 79% 2.0 mph ENE3.2 kmh ENE 2.0 mph3.2 kmh 30.16 in1021.3 mb 0.00 in0.0 mm 0.00 in0.0 mm 1.42 in36.1 mm
05:45 PM 65.3°F18.5°C 58.6°F14.8°C 79% Calm Calm 4.0 mph6.4 kmh 30.15 in1021.0 mb 0.00 in0.0 mm 0.00 in0.0 mm 1.42 in36.1 mm
05:50 PM 65.5°F18.6°C 58.8°F14.9°C 79% Calm Calm 2.0 mph3.2 kmh 30.15 in1021.0 mb 0.00 in0.0 mm 0.00 in0.0 mm 1.42 in36.1 mm
05:55 PM 65.6°F18.7°C 58.5°F14.7°C 78% 3.0 mph ENE4.8 kmh ENE 5.0 mph8.0 kmh 30.15 in1021.0 mb 0.00 in0.0 mm 0.00 in0.0 mm 1.42 in36.1 mm
06:00 PM 65.4°F18.6°C 58.7°F14.8°C 79% Calm Calm 3.0 mph4.8 kmh 30.15 in1021.0 mb 0.00 in0.0 mm 0.00 in0.0 mm 1.42 in36.1 mm
06:05 PM 65.4°F18.6°C 58.7°F14.8°C 79% 1.0 mph E1.6 kmh E 7.0 mph11.3 kmh 30.15 in1021.0 mb 0.00 in0.0 mm 0.00 in0.0 mm 1.42 in36.1 mm
06:10 PM 65.5°F18.6°C 58.8°F14.9°C 79% Calm Calm 3.0 mph4.8 kmh 30.14 in1020.7 mb 0.00 in0.0 mm 0.00 in0.0 mm 1.42 in36.1 mm
06:15 PM 65.7°F18.7°C 59.0°F15.0°C 79% Calm Calm 8.0 mph12.9 kmh 30.14 in1020.7 mb 0.00 in0.0 mm 0.00 in0.0 mm 1.42 in36.1 mm
06:20 PM 65.8°F18.8°C 58.7°F14.8°C 78% 1.0 mph E1.6 kmh E 6.0 mph9.7 kmh 30.15 in1021.0 mb 0.00 in0.0 mm 0.00 in0.0 mm 1.42 in36.1 mm
06:25 PM 65.8°F18.8°C 58.7°F14.8°C 78% Calm Calm 5.0 mph8.0 kmh 30.14 in1020.7 mb 0.00 in0.0 mm 0.00 in0.0 mm 1.42 in36.1 mm
06:30 PM 66.0°F18.9°C 59.2°F15.1°C 79% Calm Calm 1.0 mph1.6 kmh 30.15 in1021.0 mb 0.00 in0.0 mm 0.00 in0.0 mm 1.42 in36.1 mm
06:35 PM 66.0°F18.9°C 58.5°F14.7°C 77% Calm Calm 3.0 mph4.8 kmh 30.15 in1021.0 mb 0.00 in0.0 mm 0.00 in0.0 mm 1.42 in36.1 mm
06:40 PM 66.0°F18.9°C 58.9°F14.9°C 78% Calm Calm 1.0 mph1.6 kmh 30.15 in1021.0 mb 0.00 in0.0 mm 0.00 in0.0 mm 1.42 in36.1 mm
06:45 PM 66.1°F18.9°C 59.0°F15.0°C 78% Calm Calm 1.0 mph1.6 kmh 30.15 in1021.0 mb 0.00 in0.0 mm 0.00 in0.0 mm 1.42 in36.1 mm
06:50 PM 66.1°F18.9°C 59.0°F15.0°C 78% Calm Calm 1.0 mph1.6 kmh 30.14 in1020.7 mb 0.00 in0.0 mm 0.00 in0.0 mm 1.42 in36.1 mm
06:55 PM 66.1°F18.9°C 59.0°F15.0°C 78% Calm Calm 1.0 mph1.6 kmh 30.14 in1020.7 mb 0.00 in0.0 mm 0.00 in0.0 mm 1.42 in36.1 mm
07:00 PM 65.9°F18.8°C 58.8°F14.9°C 78% Calm Calm 5.0 mph8.0 kmh 30.14 in1020.7 mb 0.00 in0.0 mm 0.00 in0.0 mm 1.42 in36.1 mm
07:05 PM 65.9°F18.8°C 58.8°F14.9°C 78% Calm Calm 1.0 mph1.6 kmh 30.14 in1020.7 mb 0.00 in0.0 mm 0.00 in0.0 mm 1.42 in36.1 mm
07:10 PM 65.9°F18.8°C 58.8°F14.9°C 78% Calm Calm 5.0 mph8.0 kmh 30.14 in1020.7 mb 0.00 in0.0 mm 0.00 in0.0 mm 1.42 in36.1 mm
07:15 PM 65.7°F18.7°C 59.0°F15.0°C 79% Calm Calm 6.0 mph9.7 kmh 30.14 in1020.7 mb 0.00 in0.0 mm 0.00 in0.0 mm 1.42 in36.1 mm
07:20 PM 65.6°F18.7°C 59.2°F15.1°C 80% Calm Calm 5.0 mph8.0 kmh 30.14 in1020.7 mb 0.00 in0.0 mm 0.00 in0.0 mm 1.42 in36.1 mm
07:25 PM 65.6°F18.7°C 58.9°F14.9°C 79% Calm Calm 3.0 mph4.8 kmh 30.14 in1020.7 mb 0.00 in0.0 mm 0.00 in0.0 mm 1.42 in36.1 mm
07:30 PM 65.4°F18.6°C 58.7°F14.8°C 79% Calm Calm 2.0 mph3.2 kmh 30.14 in1020.7 mb 0.00 in0.0 mm 0.00 in0.0 mm 1.42 in36.1 mm
07:35 PM 65.4°F18.6°C 59.0°F15.0°C 80% Calm Calm 5.0 mph8.0 kmh 30.14 in1020.7 mb 0.00 in0.0 mm 0.00 in0.0 mm 1.42 in36.1 mm
07:40 PM 65.3°F18.5°C 59.3°F15.2°C 81% Calm Calm 5.0 mph8.0 kmh 30.14 in1020.7 mb 0.00 in0.0 mm 0.00 in0.0 mm 1.42 in36.1 mm
07:45 PM 65.2°F18.4°C 58.8°F14.9°C 80% 2.0 mph E3.2 kmh E 5.0 mph8.0 kmh 30.14 in1020.7 mb 0.00 in0.0 mm 0.00 in0.0 mm 1.42 in36.1 mm
07:50 PM 65.1°F18.4°C 59.1°F15.1°C 81% Calm Calm 3.0 mph4.8 kmh 30.15 in1021.0 mb 0.00 in0.0 mm 0.00 in0.0 mm 1.42 in36.1 mm
07:55 PM 65.0°F18.3°C 59.0°F15.0°C 81% 1.0 mph E1.6 kmh E 5.0 mph8.0 kmh 30.15 in1021.0 mb 0.00 in0.0 mm 0.00 in0.0 mm 1.42 in36.1 mm
08:00 PM 65.0°F18.3°C 59.0°F15.0°C 81% 1.0 mph E1.6 kmh E 5.0 mph8.0 kmh 30.15 in1021.0 mb 0.00 in0.0 mm 0.00 in0.0 mm 1.42 in36.1 mm
08:05 PM 65.0°F18.3°C 59.3°F15.2°C 82% 2.0 mph E3.2 kmh E 2.0 mph3.2 kmh 30.15 in1021.0 mb 0.00 in0.0 mm 0.00 in0.0 mm 1.42 in36.1 mm
08:10 PM 64.9°F18.3°C 59.2°F15.1°C 82% Calm Calm 2.0 mph3.2 kmh 30.15 in1021.0 mb 0.00 in0.0 mm 0.00 in0.0 mm 1.42 in36.1 mm
08:15 PM 64.9°F18.3°C 59.2°F15.1°C 82% Calm Calm -- 30.15 in1021.0 mb 0.00 in0.0 mm 0.00 in0.0 mm 1.42 in36.1 mm
08:20 PM 64.9°F18.3°C 59.6°F15.3°C 83% Calm Calm 2.0 mph3.2 kmh 30.15 in1021.0 mb 0.00 in0.0 mm 0.00 in0.0 mm 1.42 in36.1 mm
08:25 PM 64.8°F18.2°C 59.5°F15.3°C 83% Calm Calm 3.0 mph4.8 kmh 30.15 in1021.0 mb 0.00 in0.0 mm 0.00 in0.0 mm 1.42 in36.1 mm
08:30 PM 64.7°F18.2°C 59.4°F15.2°C 83% Calm Calm 3.0 mph4.8 kmh 30.16 in1021.3 mb 0.00 in0.0 mm 0.00 in0.0 mm 1.42 in36.1 mm
08:35 PM 64.7°F18.2°C 59.4°F15.2°C 83% Calm Calm 1.0 mph1.6 kmh 30.16 in1021.3 mb 0.00 in0.0 mm 0.00 in0.0 mm 1.42 in36.1 mm
08:40 PM 64.7°F18.2°C 59.7°F15.4°C 84% Calm Calm 1.0 mph1.6 kmh 30.16 in1021.3 mb 0.00 in0.0 mm 0.00 in0.0 mm 1.42 in36.1 mm
08:45 PM 64.6°F18.1°C 59.6°F15.3°C 84% Calm Calm 2.0 mph3.2 kmh 30.17 in1021.7 mb 0.00 in0.0 mm 0.00 in0.0 mm 1.42 in36.1 mm
08:50 PM 64.6°F18.1°C 59.6°F15.3°C 84% Calm Calm 2.0 mph3.2 kmh 30.16 in1021.3 mb 0.00 in0.0 mm 0.00 in0.0 mm 1.42 in36.1 mm
08:55 PM 64.6°F18.1°C 59.6°F15.3°C 84% Calm Calm 1.0 mph1.6 kmh 30.17 in1021.7 mb 0.00 in0.0 mm 0.00 in0.0 mm 1.42 in36.1 mm
09:00 PM 64.5°F18.1°C 59.8°F15.4°C 85% Calm Calm 1.0 mph1.6 kmh 30.17 in1021.7 mb 0.00 in0.0 mm 0.00 in0.0 mm 1.42 in36.1 mm
09:05 PM 64.5°F18.1°C 59.8°F15.4°C 85% Calm Calm 3.0 mph4.8 kmh 30.17 in1021.7 mb 0.00 in0.0 mm 0.00 in0.0 mm 1.42 in36.1 mm
09:10 PM 64.4°F18.0°C 59.4°F15.2°C 84% Calm Calm 6.0 mph9.7 kmh 30.17 in1021.7 mb 0.00 in0.0 mm 0.00 in0.0 mm 1.42 in36.1 mm
09:15 PM 64.3°F17.9°C 59.3°F15.2°C 84% Calm Calm 3.0 mph4.8 kmh 30.17 in1021.7 mb 0.00 in0.0 mm 0.00 in0.0 mm 1.42 in36.1 mm
09:20 PM 64.3°F17.9°C 59.6°F15.3°C 85% Calm Calm 5.0 mph8.0 kmh 30.17 in1021.7 mb 0.00 in0.0 mm 0.00 in0.0 mm 1.42 in36.1 mm
09:25 PM 64.2°F17.9°C 59.5°F15.3°C 85% 1.0 mph E1.6 kmh E 5.0 mph8.0 kmh 30.17 in1021.7 mb 0.00 in0.0 mm 0.00 in0.0 mm 1.42 in36.1 mm
09:30 PM 64.2°F17.9°C 59.2°F15.1°C 84% Calm Calm 3.0 mph4.8 kmh 30.17 in1021.7 mb 0.00 in0.0 mm 0.00 in0.0 mm 1.42 in36.1 mm
09:35 PM 64.1°F17.8°C 59.4°F15.2°C 85% 2.0 mph E3.2 kmh E 3.0 mph4.8 kmh 30.17 in1021.7 mb 0.00 in0.0 mm 0.00 in0.0 mm 1.42 in36.1 mm
09:40 PM 64.1°F17.8°C 59.4°F15.2°C 85% Calm Calm 2.0 mph3.2 kmh 30.17 in1021.7 mb 0.00 in0.0 mm 0.00 in0.0 mm 1.42 in36.1 mm
09:45 PM 64.1°F17.8°C 59.4°F15.2°C 85% 1.0 mph E1.6 kmh E 3.0 mph4.8 kmh 30.17 in1021.7 mb 0.00 in0.0 mm 0.00 in0.0 mm 1.42 in36.1 mm
09:50 PM 64.1°F17.8°C 59.4°F15.2°C 85% Calm Calm 3.0 mph4.8 kmh 30.17 in1021.7 mb 0.00 in0.0 mm 0.00 in0.0 mm 1.42 in36.1 mm
09:55 PM 64.1°F17.8°C 59.4°F15.2°C 85% Calm Calm 1.0 mph1.6 kmh 30.17 in1021.7 mb 0.00 in0.0 mm 0.00 in0.0 mm 1.42 in36.1 mm
10:00 PM 64.1°F17.8°C 59.4°F15.2°C 85% 1.0 mph E1.6 kmh E 3.0 mph4.8 kmh 30.17 in1021.7 mb 0.00 in0.0 mm 0.00 in0.0 mm 1.42 in36.1 mm
10:05 PM 64.1°F17.8°C 59.8°F15.4°C 86% Calm Calm 2.0 mph3.2 kmh 30.18 in1022.0 mb 0.00 in0.0 mm 0.00 in0.0 mm 1.42 in36.1 mm
10:10 PM 64.1°F17.8°C 59.8°F15.4°C 86% Calm Calm 5.0 mph8.0 kmh 30.18 in1022.0 mb 0.00 in0.0 mm 0.00 in0.0 mm 1.42 in36.1 mm
10:15 PM 64.0°F17.8°C 59.7°F15.4°C 86% Calm Calm 2.0 mph3.2 kmh 30.18 in1022.0 mb 0.00 in0.0 mm 0.00 in0.0 mm 1.42 in36.1 mm
10:20 PM 64.0°F17.8°C 59.7°F15.4°C 86% Calm Calm 3.0 mph4.8 kmh 30.19 in1022.4 mb 0.00 in0.0 mm 0.00 in0.0 mm 1.42 in36.1 mm
10:25 PM 63.9°F17.7°C 59.6°F15.3°C 86% Calm Calm 3.0 mph4.8 kmh 30.19 in1022.4 mb 0.00 in0.0 mm 0.00 in0.0 mm 1.42 in36.1 mm
10:30 PM 63.9°F17.7°C 59.6°F15.3°C 86% Calm Calm 2.0 mph3.2 kmh 30.19 in1022.4 mb 0.00 in0.0 mm 0.00 in0.0 mm 1.42 in36.1 mm
10:35 PM 63.9°F17.7°C 59.6°F15.3°C 86% Calm Calm 3.0 mph4.8 kmh 30.18 in1022.0 mb 0.00 in0.0 mm 0.00 in0.0 mm 1.42 in36.1 mm
10:40 PM 63.8°F17.7°C 59.8°F15.4°C 87% Calm Calm 5.0 mph8.0 kmh 30.18 in1022.0 mb 0.00 in0.0 mm 0.00 in0.0 mm 1.42 in36.1 mm
10:45 PM 63.8°F17.7°C 59.8°F15.4°C 87% Calm Calm 2.0 mph3.2 kmh 30.18 in1022.0 mb 0.00 in0.0 mm 0.00 in0.0 mm 1.42 in36.1 mm
10:50 PM 63.7°F17.6°C 59.7°F15.4°C 87% Calm Calm 2.0 mph3.2 kmh 30.18 in1022.0 mb 0.00 in0.0 mm 0.00 in0.0 mm 1.42 in36.1 mm
10:55 PM 63.7°F17.6°C 59.7°F15.4°C 87% 2.0 mph E3.2 kmh E 2.0 mph3.2 kmh 30.18 in1022.0 mb 0.00 in0.0 mm 0.00 in0.0 mm 1.42 in36.1 mm
11:00 PM 63.7°F17.6°C 59.7°F15.4°C 87% Calm Calm 2.0 mph3.2 kmh 30.17 in1021.7 mb 0.00 in0.0 mm 0.00 in0.0 mm 1.42 in36.1 mm
11:05 PM 63.7°F17.6°C 60.0°F15.6°C 88% Calm Calm -- 30.17 in1021.7 mb 0.00 in0.0 mm 0.00 in0.0 mm 1.42 in36.1 mm
11:10 PM 63.6°F17.6°C 59.9°F15.5°C 88% Calm Calm 1.0 mph1.6 kmh 30.17 in1021.7 mb 0.00 in0.0 mm 0.00 in0.0 mm 1.42 in36.1 mm
11:15 PM 63.6°F17.6°C 59.9°F15.5°C 88% Calm Calm 3.0 mph4.8 kmh 30.17 in1021.7 mb 0.00 in0.0 mm 0.00 in0.0 mm 1.42 in36.1 mm
11:20 PM 63.6°F17.6°C 59.9°F15.5°C 88% Calm Calm 2.0 mph3.2 kmh 30.17 in1021.7 mb 0.00 in0.0 mm 0.00 in0.0 mm 1.42 in36.1 mm
11:25 PM 63.6°F17.6°C 59.9°F15.5°C 88% Calm Calm -- 30.17 in1021.7 mb 0.00 in0.0 mm 0.00 in0.0 mm 1.42 in36.1 mm
11:30 PM 63.5°F17.5°C 59.8°F15.4°C 88% 1.0 mph E1.6 kmh E 1.0 mph1.6 kmh 30.17 in1021.7 mb 0.00 in0.0 mm 0.00 in0.0 mm 1.42 in36.1 mm
11:35 PM 63.5°F17.5°C 60.1°F15.6°C 89% Calm Calm 2.0 mph3.2 kmh 30.17 in1021.7 mb 0.00 in0.0 mm 0.00 in0.0 mm 1.42 in36.1 mm
11:40 PM 63.4°F17.4°C 60.0°F15.6°C 89% 1.0 mph E1.6 kmh E 2.0 mph3.2 kmh 30.16 in1021.3 mb 0.00 in0.0 mm 0.00 in0.0 mm 1.42 in36.1 mm
11:45 PM 63.4°F17.4°C 60.0°F15.6°C 89% Calm Calm 5.0 mph8.0 kmh 30.17 in1021.7 mb 0.00 in0.0 mm 0.00 in0.0 mm 1.42 in36.1 mm
11:50 PM 63.3°F17.4°C 59.9°F15.5°C 89% 1.0 mph E1.6 kmh E 5.0 mph8.0 kmh 30.17 in1021.7 mb 0.00 in0.0 mm 0.00 in0.0 mm 1.42 in36.1 mm
11:55 PM 63.3°F17.4°C 59.9°F15.5°C 89% Calm Calm 3.0 mph4.8 kmh 30.17 in1021.7 mb 0.00 in0.0 mm 0.00 in0.0 mm 1.42 in36.1 mm